sensor_id;sensor_type;location;lat;lon;timestamp;pressure;altitude;pressure_sealevel;temperature;humidity
9421;BME280;4749;51.398;5.466;2022-11-11T00:01:20;102700.88;;;9.78;100.00
9421;BME280;4749;51.398;5.466;2022-11-11T00:03:47;102706.06;;;9.77;100.00
9421;BME280;4749;51.398;5.466;2022-11-11T00:06:15;102700.91;;;9.80;100.00
9421;BME280;4749;51.398;5.466;2022-11-11T00:08:47;102704.63;;;9.85;100.00
9421;BME280;4749;51.398;5.466;2022-11-11T00:11:15;102702.19;;;9.91;100.00
9421;BME280;4749;51.398;5.466;2022-11-11T00:13:43;102705.91;;;9.98;100.00
9421;BME280;4749;51.398;5.466;2022-11-11T00:16:16;102714.13;;;10.07;100.00
9421;BME280;4749;51.398;5.466;2022-11-11T00:18:44;102713.44;;;10.12;100.00
9421;BME280;4749;51.398;5.466;2022-11-11T00:21:31;102717.19;;;10.19;100.00
9421;BME280;4749;51.398;5.466;2022-11-11T00:24:07;102725.28;;;10.25;100.00
9421;BME280;4749;51.398;5.466;2022-11-11T00:27:02;102716.72;;;10.31;100.00
9421;BME280;4749;51.398;5.466;2022-11-11T00:29:31;102709.03;;;10.37;100.00
9421;BME280;4749;51.398;5.466;2022-11-11T00:31:58;102711.81;;;10.41;100.00
9421;BME280;4749;51.398;5.466;2022-11-11T00:34:43;102704.00;;;10.43;100.00
9421;BME280;4749;51.398;5.466;2022-11-11T00:37:32;102700.59;;;10.47;100.00
9421;BME280;4749;51.398;5.466;2022-11-11T00:39:59;102713.03;;;10.51;100.00
9421;BME280;4749;51.398;5.466;2022-11-11T00:42:27;102719.22;;;10.53;100.00
9421;BME280;4749;51.398;5.466;2022-11-11T00:44:54;102715.78;;;10.56;100.00
9421;BME280;4749;51.398;5.466;2022-11-11T00:47:21;102709.72;;;10.58;100.00
9421;BME280;4749;51.398;5.466;2022-11-11T00:50:25;102712.44;;;10.60;100.00
9421;BME280;4749;51.398;5.466;2022-11-11T00:53:15;102723.88;;;10.62;100.00
9421;BME280;4749;51.398;5.466;2022-11-11T00:55:49;102723.13;;;10.66;100.00
9421;BME280;4749;51.398;5.466;2022-11-11T00:58:16;102737.28;;;10.69;100.00
9421;BME280;4749;51.398;5.466;2022-11-11T01:00:43;102728.56;;;10.70;100.00
9421;BME280;4749;51.398;5.466;2022-11-11T01:03:10;102728.56;;;10.70;100.00
9421;BME280;4749;51.398;5.466;2022-11-11T01:05:37;102732.97;;;10.71;100.00
9421;BME280;4749;51.398;5.466;2022-11-11T01:08:05;102733.06;;;10.75;100.00
9421;BME280;4749;51.398;5.466;2022-11-11T01:10:32;102737.44;;;10.74;100.00
9421;BME280;4749;51.398;5.466;2022-11-11T01:13:17;102747.09;;;10.75;100.00
9421;BME280;4749;51.398;5.466;2022-11-11T01:15:48;102762.03;;;10.76;100.00
9421;BME280;4749;51.398;5.466;2022-11-11T01:18:20;102755.00;;;10.75;100.00
9421;BME280;4749;51.398;5.466;2022-11-11T01:21:05;102757.69;;;10.77;100.00
9421;BME280;4749;51.398;5.466;2022-11-11T01:23:36;102752.44;;;10.77;100.00
9421;BME280;4749;51.398;5.466;2022-11-11T01:26:25;102749.84;;;10.78;100.00
9421;BME280;4749;51.398;5.466;2022-11-11T01:28:57;102749.84;;;10.78;100.00
9421;BME280;4749;51.398;5.466;2022-11-11T01:31:25;102751.69;;;10.81;100.00
9421;BME280;4749;51.398;5.466;2022-11-11T01:33:53;102744.63;;;10.80;100.00
9421;BME280;4749;51.398;5.466;2022-11-11T01:36:24;102749.00;;;10.79;100.00
9421;BME280;4749;51.398;5.466;2022-11-11T01:38:54;102742.84;;;10.79;100.00
9421;BME280;4749;51.398;5.466;2022-11-11T01:41:26;102741.09;;;10.79;100.00
9421;BME280;4749;51.398;5.466;2022-11-11T01:47:01;102744.72;;;10.83;100.00
9421;BME280;4749;51.398;5.466;2022-11-11T01:52:29;102730.72;;;10.84;100.00
9421;BME280;4749;51.398;5.466;2022-11-11T01:55:08;102734.22;;;10.84;100.00
9421;BME280;4749;51.398;5.466;2022-11-11T01:57:41;102722.78;;;10.82;100.00
9421;BME280;4749;51.398;5.466;2022-11-11T02:00:16;102731.56;;;10.83;100.00
9421;BME280;4749;51.398;5.466;2022-11-11T02:02:56;102721.00;;;10.81;100.00
9421;BME280;4749;51.398;5.466;2022-11-11T02:05:24;102722.69;;;10.79;100.00
9421;BME280;4749;51.398;5.466;2022-11-11T02:08:27;102721.84;;;10.80;100.00
9421;BME280;4749;51.398;5.466;2022-11-11T02:11:13;102725.31;;;10.79;100.00
9421;BME280;4749;51.398;5.466;2022-11-11T02:13:43;102727.94;;;10.79;100.00
9421;BME280;4749;51.398;5.466;2022-11-11T02:16:29;102734.19;;;10.83;100.00
9421;BME280;4749;51.398;5.466;2022-11-11T02:18:56;102731.59;;;10.84;100.00
9421;BME280;4749;51.398;5.466;2022-11-11T02:21:34;102742.97;;;10.83;100.00
9421;BME280;4749;51.398;5.466;2022-11-11T02:24:16;102736.81;;;10.83;100.00
9421;BME280;4749;51.398;5.466;2022-11-11T02:26:45;102732.41;;;10.82;100.00
9421;BME280;4749;51.398;5.466;2022-11-11T02:29:18;102732.41;;;10.82;100.00
9421;BME280;4749;51.398;5.466;2022-11-11T02:31:46;102728.00;;;10.81;100.00
9421;BME280;4749;51.398;5.466;2022-11-11T02:34:13;102725.38;;;10.81;100.00
9421;BME280;4749;51.398;5.466;2022-11-11T02:36:41;102716.53;;;10.79;100.00
9421;BME280;4749;51.398;5.466;2022-11-11T02:39:10;102713.91;;;10.79;100.00
9421;BME280;4749;51.398;5.466;2022-11-11T02:41:37;102715.53;;;10.75;100.00
9421;BME280;4749;51.398;5.466;2022-11-11T02:44:37;102718.16;;;10.75;100.00
9421;BME280;4749;51.398;5.466;2022-11-11T02:47:04;102712.00;;;10.75;100.00
9421;BME280;4749;51.398;5.466;2022-11-11T02:49:32;102712.91;;;10.75;100.00
9421;BME280;4749;51.398;5.466;2022-11-11T02:51:59;102703.25;;;10.76;100.00
9421;BME280;4749;51.398;5.466;2022-11-11T02:54:26;102712.84;;;10.74;100.00
9421;BME280;4749;51.398;5.466;2022-11-11T02:56:53;102711.13;;;10.74;100.00
9421;BME280;4749;51.398;5.466;2022-11-11T02:59:38;102702.34;;;10.74;100.00
9421;BME280;4749;51.398;5.466;2022-11-11T03:02:06;102707.59;;;10.74;100.00
9421;BME280;4749;51.398;5.466;2022-11-11T03:04:34;102704.97;;;10.74;100.00
9421;BME280;4749;51.398;5.466;2022-11-11T03:07:05;102690.88;;;10.71;100.00
9421;BME280;4749;51.398;5.466;2022-11-11T03:09:36;102704.91;;;10.72;100.00
9421;BME280;4749;51.398;5.466;2022-11-11T03:12:03;102688.19;;;10.70;100.00
9421;BME280;4749;51.398;5.466;2022-11-11T03:14:31;102683.66;;;10.66;100.00
9421;BME280;4749;51.398;5.466;2022-11-11T03:16:58;102696.88;;;10.67;100.00
9421;BME280;4749;51.398;5.466;2022-11-11T03:19:44;102695.88;;;10.64;100.00
9421;BME280;4749;51.398;5.466;2022-11-11T03:22:11;102695.00;;;10.63;100.00
9421;BME280;4749;51.398;5.466;2022-11-11T03:24:58;102697.47;;;10.59;100.00
9421;BME280;4749;51.398;5.466;2022-11-11T03:27:43;102695.66;;;10.56;100.00
9421;BME280;4749;51.398;5.466;2022-11-11T03:30:11;102699.13;;;10.55;100.00
9421;BME280;4749;51.398;5.466;2022-11-11T03:32:38;102707.91;;;10.56;100.00
9421;BME280;4749;51.398;5.466;2022-11-11T03:35:05;102699.16;;;10.57;100.00
9421;BME280;4749;51.398;5.466;2022-11-11T03:37:32;102709.59;;;10.54;100.00
9421;BME280;4749;51.398;5.466;2022-11-11T03:40:18;102699.88;;;10.51;100.00
9421;BME280;4749;51.398;5.466;2022-11-11T03:42:45;102707.69;;;10.50;100.00
9421;BME280;4749;51.398;5.466;2022-11-11T03:45:12;102692.75;;;10.49;100.00
9421;BME280;4749;51.398;5.466;2022-11-11T03:47:40;102697.03;;;10.45;100.00
9421;BME280;4749;51.398;5.466;2022-11-11T03:50:07;102694.41;;;10.45;100.00
9421;BME280;4749;51.398;5.466;2022-11-11T03:52:34;102696.09;;;10.43;100.00
9421;BME280;4749;51.398;5.466;2022-11-11T03:55:01;102699.56;;;10.42;100.00
9421;BME280;4749;51.398;5.466;2022-11-11T03:57:28;102700.34;;;10.39;100.00
9421;BME280;4749;51.398;5.466;2022-11-11T03:59:58;102702.84;;;10.35;100.00
9421;BME280;4749;51.398;5.466;2022-11-11T04:02:26;102707.84;;;10.27;100.00
9421;BME280;4749;51.398;5.466;2022-11-11T04:05:11;102717.06;;;10.16;100.00
9421;BME280;4749;51.398;5.466;2022-11-11T04:07:57;102714.13;;;10.07;100.00
9421;BME280;4749;51.398;5.466;2022-11-11T04:10:43;102724.31;;;9.98;100.00
9421;BME280;4749;51.398;5.466;2022-11-11T04:13:10;102722.25;;;9.89;100.00
9421;BME280;4749;51.398;5.466;2022-11-11T04:15:56;102709.66;;;9.79;100.00
9421;BME280;4749;51.398;5.466;2022-11-11T04:18:33;102716.44;;;9.74;100.00
9421;BME280;4749;51.398;5.466;2022-11-11T04:21:20;102719.59;;;9.64;100.00
9421;BME280;4749;51.398;5.466;2022-11-11T04:24:06;102712.28;;;9.55;100.00
9421;BME280;4749;51.398;5.466;2022-11-11T04:26:58;102719.03;;;9.48;100.00
9421;BME280;4749;51.398;5.466;2022-11-11T04:29:25;102712.69;;;9.42;100.00
9421;BME280;4749;51.398;5.466;2022-11-11T04:35:00;102716.63;;;9.30;100.00
9421;BME280;4749;51.398;5.466;2022-11-11T04:37:31;102713.75;;;9.24;100.00
9421;BME280;4749;51.398;5.466;2022-11-11T04:39:59;102710.91;;;9.18;100.00
9421;BME280;4749;51.398;5.466;2022-11-11T04:42:45;102715.13;;;9.15;100.00
9421;BME280;4749;51.398;5.466;2022-11-11T04:45:13;102715.88;;;9.11;100.00
9421;BME280;4749;51.398;5.466;2022-11-11T04:48:06;102711.31;;;9.07;100.00
9421;BME280;4749;51.398;5.466;2022-11-11T04:50:37;102712.94;;;9.03;100.00
9421;BME280;4749;51.398;5.466;2022-11-11T04:53:07;102716.28;;;8.99;100.00
9421;BME280;4749;51.398;5.466;2022-11-11T04:55:37;102717.91;;;8.95;100.00
9421;BME280;4749;51.398;5.466;2022-11-11T04:58:26;102713.28;;;8.90;100.00
9421;BME280;4749;51.398;5.466;2022-11-11T05:00:53;102713.19;;;8.87;100.00
9421;BME280;4749;51.398;5.466;2022-11-11T05:03:20;102716.59;;;8.84;100.00
9421;BME280;4749;51.398;5.466;2022-11-11T05:05:54;102712.03;;;8.80;100.00
9421;BME280;4749;51.398;5.466;2022-11-11T05:08:48;102712.81;;;8.78;100.00
9421;BME280;4749;51.398;5.466;2022-11-11T05:11:33;102713.59;;;8.75;100.00
9421;BME280;4749;51.398;5.466;2022-11-11T05:14:04;102716.97;;;8.72;100.00
9421;BME280;4749;51.398;5.466;2022-11-11T05:16:59;102718.59;;;8.69;100.00
9421;BME280;4749;51.398;5.466;2022-11-11T05:19:45;102714.03;;;8.65;100.00
9421;BME280;4749;51.398;5.466;2022-11-11T05:22:39;102710.38;;;8.60;100.00
9421;BME280;4749;51.398;5.466;2022-11-11T05:25:08;102717.28;;;8.58;100.00
9421;BME280;4749;51.398;5.466;2022-11-11T05:27:56;102717.19;;;8.56;100.00
9421;BME280;4749;51.398;5.466;2022-11-11T05:30:24;102709.22;;;8.53;100.00
9421;BME280;4749;51.398;5.466;2022-11-11T05:32:54;102708.22;;;8.50;100.00
9421;BME280;4749;51.398;5.466;2022-11-11T05:35:22;102705.59;;;8.50;100.00
9421;BME280;4749;51.398;5.466;2022-11-11T05:37:49;102708.13;;;8.48;100.00
9421;BME280;4749;51.398;5.466;2022-11-11T05:40:34;102712.41;;;8.46;100.00
9421;BME280;4749;51.398;5.466;2022-11-11T05:43:01;102715.88;;;8.45;100.00
9421;BME280;4749;51.398;5.466;2022-11-11T05:45:28;102720.22;;;8.44;100.00
9421;BME280;4749;51.398;5.466;2022-11-11T05:48:01;102721.91;;;8.42;100.00
9421;BME280;4749;51.398;5.466;2022-11-11T05:50:28;102727.06;;;8.41;100.00
9421;BME280;4749;51.398;5.466;2022-11-11T05:52:55;102725.19;;;8.38;100.00
9421;BME280;4749;51.398;5.466;2022-11-11T05:55:22;102726.03;;;8.37;100.00
9421;BME280;4749;51.398;5.466;2022-11-11T05:57:49;102730.38;;;8.37;100.00
9421;BME280;4749;51.398;5.466;2022-11-11T06:00:17;102731.13;;;8.34;100.00
9421;BME280;4749;51.398;5.466;2022-11-11T06:02:44;102730.25;;;8.34;100.00
9421;BME280;4749;51.398;5.466;2022-11-11T06:05:11;102728.44;;;8.33;100.00
9421;BME280;4749;51.398;5.466;2022-11-11T06:07:39;102730.09;;;8.31;100.00
9421;BME280;4749;51.398;5.466;2022-11-11T06:10:09;102724.78;;;8.29;100.00
9421;BME280;4749;51.398;5.466;2022-11-11T06:12:56;102726.47;;;8.27;100.00
9421;BME280;4749;51.398;5.466;2022-11-11T06:15:37;102735.09;;;8.25;100.00
9421;BME280;4749;51.398;5.466;2022-11-11T06:18:06;102737.72;;;8.25;100.00
9421;BME280;4749;51.398;5.466;2022-11-11T06:20:33;102735.84;;;8.22;100.00
9421;BME280;4749;51.398;5.466;2022-11-11T06:23:03;102732.38;;;8.23;100.00
9421;BME280;4749;51.398;5.466;2022-11-11T06:25:32;102744.53;;;8.21;100.00
9421;BME280;4749;51.398;5.466;2022-11-11T06:28:18;102741.84;;;8.19;100.00
9421;BME280;4749;51.398;5.466;2022-11-11T06:30:45;102737.44;;;8.18;100.00
9421;BME280;4749;51.398;5.466;2022-11-11T06:33:17;102739.13;;;8.16;100.00
9421;BME280;4749;51.398;5.466;2022-11-11T06:35:44;102735.50;;;8.14;100.00
9421;BME280;4749;51.398;5.466;2022-11-11T06:38:12;102743.53;;;8.17;100.00
9421;BME280;4749;51.398;5.466;2022-11-11T06:40:41;102748.69;;;8.16;100.00
9421;BME280;4749;51.398;5.466;2022-11-11T06:43:09;102755.63;;;8.15;100.00
9421;BME280;4749;51.398;5.466;2022-11-11T06:45:36;102767.03;;;8.16;100.00
9421;BME280;4749;51.398;5.466;2022-11-11T06:48:04;102768.75;;;8.15;100.00
9421;BME280;4749;51.398;5.466;2022-11-11T06:50:32;102771.34;;;8.15;100.00
9421;BME280;4749;51.398;5.466;2022-11-11T06:53:29;102772.19;;;8.14;100.00
9421;BME280;4749;51.398;5.466;2022-11-11T06:55:57;102777.38;;;8.13;100.00
9421;BME280;4749;51.398;5.466;2022-11-11T06:58:24;102777.38;;;8.13;100.00
9421;BME280;4749;51.398;5.466;2022-11-11T07:00:52;102772.13;;;8.13;100.00
9421;BME280;4749;51.398;5.466;2022-11-11T07:03:21;102774.81;;;8.14;100.00
9421;BME280;4749;51.398;5.466;2022-11-11T07:05:51;102768.69;;;8.14;100.00
9421;BME280;4749;51.398;5.466;2022-11-11T07:08:25;102774.81;;;8.14;100.00
9421;BME280;4749;51.398;5.466;2022-11-11T07:10:53;102772.28;;;8.16;100.00
9421;BME280;4749;51.398;5.466;2022-11-11T07:13:20;102782.88;;;8.19;100.00
9421;BME280;4749;51.398;5.466;2022-11-11T07:15:48;102787.28;;;8.20;100.00
9421;BME280;4749;51.398;5.466;2022-11-11T07:18:15;102780.38;;;8.22;100.00
9421;BME280;4749;51.398;5.466;2022-11-11T07:20:42;102782.31;;;8.26;100.00
9421;BME280;4749;51.398;5.466;2022-11-11T07:23:09;102780.66;;;8.28;100.00
9421;BME280;4749;51.398;5.466;2022-11-11T07:25:36;102785.19;;;8.32;100.00
9421;BME280;4749;51.398;5.466;2022-11-11T07:28:03;102779.25;;;8.35;100.00
9421;BME280;4749;51.398;5.466;2022-11-11T07:30:30;102780.19;;;8.37;100.00
9421;BME280;4749;51.398;5.466;2022-11-11T07:32:57;102782.13;;;8.41;100.00
9421;BME280;4749;51.398;5.466;2022-11-11T07:35:24;102789.22;;;8.43;100.00
9421;BME280;4749;51.398;5.466;2022-11-11T07:37:51;102783.25;;;8.48;100.00
9421;BME280;4749;51.398;5.466;2022-11-11T07:40:20;102782.50;;;8.50;100.00
9421;BME280;4749;51.398;5.466;2022-11-11T07:42:47;102792.28;;;8.54;100.00
9421;BME280;4749;51.398;5.466;2022-11-11T07:45:14;102797.72;;;8.59;100.00
9421;BME280;4749;51.398;5.466;2022-11-11T07:47:43;102796.06;;;8.61;100.00
9421;BME280;4749;51.398;5.466;2022-11-11T07:50:11;102800.69;;;8.66;100.00
9421;BME280;4749;51.398;5.466;2022-11-11T07:52:38;102806.03;;;8.69;100.00
9421;BME280;4749;51.398;5.466;2022-11-11T07:55:07;102806.19;;;8.74;100.00
9421;BME280;4749;51.398;5.466;2022-11-11T07:57:35;102815.13;;;8.78;100.00
9421;BME280;4749;51.398;5.466;2022-11-11T08:00:04;102818.75;;;8.81;100.00
9421;BME280;4749;51.398;5.466;2022-11-11T08:02:31;102821.56;;;8.86;100.00
9421;BME280;4749;51.398;5.466;2022-11-11T08:04:58;102819.13;;;8.90;100.00
9421;BME280;4749;51.398;5.466;2022-11-11T08:07:25;102820.16;;;8.94;100.00
9421;BME280;4749;51.398;5.466;2022-11-11T08:09:52;102824.56;;;8.95;100.00
9421;BME280;4749;51.398;5.466;2022-11-11T08:12:19;102823.03;;;9.00;100.00
9421;BME280;4749;51.398;5.466;2022-11-11T08:15:06;102830.13;;;9.02;100.00
9421;BME280;4749;51.398;5.466;2022-11-11T08:17:39;102837.38;;;9.08;100.00
9421;BME280;4749;51.398;5.466;2022-11-11T08:20:08;102833.19;;;9.13;100.00
9421;BME280;4749;51.398;5.466;2022-11-11T08:22:40;102830.81;;;9.19;100.00
9421;BME280;4749;51.398;5.466;2022-11-11T08:25:13;102838.84;;;9.24;100.00
9421;BME280;4749;51.398;5.466;2022-11-11T08:27:41;102840.81;;;9.29;100.00
9421;BME280;4749;51.398;5.466;2022-11-11T08:30:10;102853.31;;;9.35;100.00
9421;BME280;4749;51.398;5.466;2022-11-11T08:32:37;102851.84;;;9.42;100.00
9421;BME280;4749;51.398;5.466;2022-11-11T08:35:05;102852.94;;;9.48;100.00
9421;BME280;4749;51.398;5.466;2022-11-11T08:37:32;102859.28;;;9.53;100.00
9421;BME280;4749;51.398;5.466;2022-11-11T08:39:59;102851.69;;;9.61;100.00
9421;BME280;4749;51.398;5.466;2022-11-11T08:42:26;102846.75;;;9.69;100.00
9421;BME280;4749;51.398;5.466;2022-11-11T08:44:54;102847.09;;;9.78;100.00
9421;BME280;4749;51.398;5.466;2022-11-11T08:47:21;102855.31;;;9.87;100.00
9421;BME280;4749;51.398;5.466;2022-11-11T08:49:50;102855.66;;;9.96;100.00
9421;BME280;4749;51.398;5.466;2022-11-11T08:52:18;102862.94;;;10.03;100.00
9421;BME280;4749;51.398;5.466;2022-11-11T08:54:45;102866.75;;;10.11;100.00
9421;BME280;4749;51.398;5.466;2022-11-11T08:57:12;102866.97;;;10.18;100.00
9421;BME280;4749;51.398;5.466;2022-11-11T08:59:39;102869.00;;;10.25;100.00
9421;BME280;4749;51.398;5.466;2022-11-11T09:02:10;102863.06;;;10.30;100.00
9421;BME280;4749;51.398;5.466;2022-11-11T09:04:39;102861.50;;;10.35;100.00
9421;BME280;4749;51.398;5.466;2022-11-11T09:07:12;102868.78;;;10.42;100.00
9421;BME280;4749;51.398;5.466;2022-11-11T09:09:39;102865.41;;;10.47;100.00
9421;BME280;4749;51.398;5.466;2022-11-11T09:12:07;102869.16;;;10.53;100.00
9421;BME280;4749;51.398;5.466;2022-11-11T09:14:34;102871.03;;;10.57;100.00
9421;BME280;4749;51.398;5.466;2022-11-11T09:17:01;102866.00;;;10.63;100.00
9421;BME280;4749;51.398;5.466;2022-11-11T09:19:28;102870.56;;;10.69;100.00
9421;BME280;4749;51.398;5.466;2022-11-11T09:21:55;102868.09;;;10.74;100.00
9421;BME280;4749;51.398;5.466;2022-11-11T09:24:22;102876.19;;;10.80;100.00
9421;BME280;4749;51.398;5.466;2022-11-11T09:26:50;102874.53;;;10.83;100.00
9421;BME280;4749;51.398;5.466;2022-11-11T09:29:18;102883.41;;;10.85;100.00
9421;BME280;4749;51.398;5.466;2022-11-11T09:31:45;102873.88;;;10.89;100.00
9421;BME280;4749;51.398;5.466;2022-11-11T09:34:13;102876.72;;;10.95;100.00
9421;BME280;4749;51.398;5.466;2022-11-11T09:36:41;102870.69;;;10.99;100.00
9421;BME280;4749;51.398;5.466;2022-11-11T09:39:09;102877.03;;;11.04;100.00
9421;BME280;4749;51.398;5.466;2022-11-11T09:50:30;102894.72;;;11.35;100.00
9421;BME280;4749;51.398;5.466;2022-11-11T09:53:28;102897.63;;;11.44;100.00
9421;BME280;4749;51.398;5.466;2022-11-11T09:56:19;102884.63;;;11.50;100.00
9421;BME280;4749;51.398;5.466;2022-11-11T09:59:20;102893.69;;;11.59;100.00
9421;BME280;4749;51.398;5.466;2022-11-11T10:01:55;102893.91;;;11.66;100.00
9421;BME280;4749;51.398;5.466;2022-11-11T10:04:51;102895.97;;;11.76;100.00
9421;BME280;4749;51.398;5.466;2022-11-11T10:12:57;102892.44;;;12.03;100.00
9421;BME280;4749;51.398;5.466;2022-11-11T10:15:34;102899.78;;;12.15;100.00
9421;BME280;4749;51.398;5.466;2022-11-11T10:18:47;102900.97;;;12.26;100.00
9421;BME280;4749;51.398;5.466;2022-11-11T10:21:35;102896.06;;;12.38;100.00
9421;BME280;4749;51.398;5.466;2022-11-11T10:24:41;102900.03;;;12.54;100.00
9421;BME280;4749;51.398;5.466;2022-11-11T10:27:21;102895.06;;;12.66;100.00
9421;BME280;4749;51.398;5.466;2022-11-11T10:29:49;102896.22;;;12.77;100.00
9421;BME280;4749;51.398;5.466;2022-11-11T10:32:23;102890.38;;;12.89;100.00
9421;BME280;4749;51.398;5.466;2022-11-11T10:34:51;102891.53;;;13.00;100.00
9421;BME280;4749;51.398;5.466;2022-11-11T10:37:24;102885.53;;;13.06;100.00
9421;BME280;4749;51.398;5.466;2022-11-11T10:40:06;102891.06;;;13.16;100.00
9421;BME280;4749;51.398;5.466;2022-11-11T10:42:39;102907.16;;;13.24;100.00
9421;BME280;4749;51.398;5.466;2022-11-11T10:49:17;102900.69;;;13.49;100.00
9421;BME280;4749;51.398;5.466;2022-11-11T10:51:51;102907.13;;;13.62;100.00
9421;BME280;4749;51.398;5.466;2022-11-11T10:55:07;102900.50;;;13.79;100.00
9421;BME280;4749;51.398;5.466;2022-11-11T10:58:13;102902.53;;;13.92;100.00
9421;BME280;4749;51.398;5.466;2022-11-11T11:00:38;102896.66;;;14.05;100.00
9421;BME280;4749;51.398;5.466;2022-11-11T11:06:13;102892.44;;;14.15;100.00
9421;BME280;4749;51.398;5.466;2022-11-11T11:08:48;102888.09;;;14.19;100.00
9421;BME280;4749;51.398;5.466;2022-11-11T11:12:05;102891.75;;;14.24;100.00
9421;BME280;4749;51.398;5.466;2022-11-11T11:14:32;102883.84;;;14.25;100.00
9421;BME280;4749;51.398;5.466;2022-11-11T11:17:09;102883.06;;;14.31;100.00
9421;BME280;4749;51.398;5.466;2022-11-11T11:19:39;102882.25;;;14.35;100.00
9421;BME280;4749;51.398;5.466;2022-11-11T11:22:07;102874.44;;;14.41;100.00
9421;BME280;4749;51.398;5.466;2022-11-11T11:24:36;102879.88;;;14.47;100.00
9421;BME280;4749;51.398;5.466;2022-11-11T11:27:09;102872.03;;;14.53;100.00
9421;BME280;4749;51.398;5.466;2022-11-11T11:29:42;102878.31;;;14.57;100.00
9421;BME280;4749;51.398;5.466;2022-11-11T11:32:33;102874.84;;;14.61;100.00
9421;BME280;4749;51.398;5.466;2022-11-11T11:35:00;102872.25;;;14.64;100.00
9421;BME280;4749;51.398;5.466;2022-11-11T11:37:28;102871.47;;;14.71;100.00
9421;BME280;4749;51.398;5.466;2022-11-11T11:40:04;102872.50;;;14.78;100.00
9421;BME280;4749;51.398;5.466;2022-11-11T11:42:37;102870.81;;;14.83;100.00
9421;BME280;4749;51.398;5.466;2022-11-11T11:45:26;102871.81;;;14.89;100.00
9421;BME280;4749;51.398;5.466;2022-11-11T11:48:39;102866.66;;;14.97;100.00
9421;BME280;4749;51.398;5.466;2022-11-11T11:56:57;102868.59;;;15.07;100.00
9421;BME280;4749;51.398;5.466;2022-11-11T11:59:45;102873.03;;;15.10;100.00
9421;BME280;4749;51.398;5.466;2022-11-11T12:02:44;102866.88;;;15.12;100.00
9421;BME280;4749;51.398;5.466;2022-11-11T12:05:38;102870.41;;;15.11;100.00
9421;BME280;4749;51.398;5.466;2022-11-11T12:08:16;102865.09;;;15.11;100.00
9421;BME280;4749;51.398;5.466;2022-11-11T12:11:20;102869.53;;;15.12;100.00
9421;BME280;4749;51.398;5.466;2022-11-11T12:26:12;102851.94;;;15.16;100.00
9421;BME280;4749;51.398;5.466;2022-11-11T12:34:50;102842.34;;;15.23;100.00
9421;BME280;4749;51.398;5.466;2022-11-11T13:00:31;102832.94;;;15.46;100.00
9421;BME280;4749;51.398;5.466;2022-11-11T13:03:29;102828.56;;;15.48;100.00
9421;BME280;4749;51.398;5.466;2022-11-11T13:06:48;102821.53;;;15.52;100.00
9421;BME280;4749;51.398;5.466;2022-11-11T13:10:01;102812.72;;;15.53;100.00
9421;BME280;4749;51.398;5.466;2022-11-11T13:12:50;102811.78;;;15.49;100.00
9421;BME280;4749;51.398;5.466;2022-11-11T13:15:22;102810.00;;;15.48;100.00
9421;BME280;4749;51.398;5.466;2022-11-11T13:17:50;102802.94;;;15.47;100.00
9421;BME280;4749;51.398;5.466;2022-11-11T13:20:38;102813.50;;;15.45;100.00
9421;BME280;4749;51.398;5.466;2022-11-11T13:23:10;102818.72;;;15.39;100.00
9421;BME280;4749;51.398;5.466;2022-11-11T13:25:47;102812.47;;;15.36;100.00
9421;BME280;4749;51.398;5.466;2022-11-11T13:28:31;102808.84;;;15.29;100.00
9421;BME280;4749;51.398;5.466;2022-11-11T13:34:03;102811.34;;;15.20;100.00
9421;BME280;4749;51.398;5.466;2022-11-11T13:36:52;102806.91;;;15.16;100.00
9421;BME280;4749;51.398;5.466;2022-11-11T13:39:37;102817.44;;;15.13;100.00
9421;BME280;4749;51.398;5.466;2022-11-11T13:42:06;102815.63;;;15.10;100.00
9421;BME280;4749;51.398;5.466;2022-11-11T13:44:50;102813.84;;;15.08;100.00
9421;BME280;4749;51.398;5.466;2022-11-11T13:47:22;102812.94;;;15.07;100.00
9421;BME280;4749;51.398;5.466;2022-11-11T13:49:56;102812.94;;;15.07;100.00
9421;BME280;4749;51.398;5.466;2022-11-11T13:52:36;102807.66;;;15.07;100.00
9421;BME280;4749;51.398;5.466;2022-11-11T13:55:23;102813.81;;;15.06;100.00
9421;BME280;4749;51.398;5.466;2022-11-11T13:57:53;102812.94;;;15.06;100.00
9421;BME280;4749;51.398;5.466;2022-11-11T14:02:49;102805.00;;;15.07;100.00
9421;BME280;4749;51.398;5.466;2022-11-11T14:05:35;102807.63;;;15.06;100.00
9421;BME280;4749;51.398;5.466;2022-11-11T14:08:02;102808.47;;;15.05;100.00
9421;BME280;4749;51.398;5.466;2022-11-11T14:15:49;102809.31;;;15.02;100.00
9421;BME280;4749;51.398;5.466;2022-11-11T14:20:47;102800.38;;;14.94;100.00
9421;BME280;4749;51.398;5.466;2022-11-11T14:23:40;102792.38;;;14.91;100.00
9421;BME280;4749;51.398;5.466;2022-11-11T14:28:59;102802.00;;;14.84;100.00
9421;BME280;4749;51.398;5.466;2022-11-11T14:31:45;102800.16;;;14.80;100.00
9421;BME280;4749;51.398;5.466;2022-11-11T14:37:53;102800.00;;;14.71;100.00
9421;BME280;4749;51.398;5.466;2022-11-11T14:40:33;102799.03;;;14.64;100.00
9421;BME280;4749;51.398;5.466;2022-11-11T14:46:09;102791.75;;;14.53;100.00
9421;BME280;4749;51.398;5.466;2022-11-11T14:48:58;102797.84;;;14.47;100.00
9421;BME280;4749;51.398;5.466;2022-11-11T14:57:07;102803.53;;;14.22;100.00
9421;BME280;4749;51.398;5.466;2022-11-11T14:59:37;102806.88;;;14.13;100.00
9421;BME280;4749;51.398;5.466;2022-11-11T15:02:24;102797.84;;;14.03;100.00
9421;BME280;4749;51.398;5.466;2022-11-11T15:04:52;102805.63;;;13.94;100.00
9421;BME280;4749;51.398;5.466;2022-11-11T15:10:31;102802.56;;;13.73;100.00
9421;BME280;4749;51.398;5.466;2022-11-11T15:19:12;102801.84;;;13.39;100.00
9421;BME280;4749;51.398;5.466;2022-11-11T15:21:38;102797.09;;;13.24;100.00
9421;BME280;4749;51.398;5.466;2022-11-11T15:24:23;102804.75;;;13.14;100.00
9421;BME280;4749;51.398;5.466;2022-11-11T15:30:10;102800.59;;;12.87;100.00
9421;BME280;4749;51.398;5.466;2022-11-11T15:35:48;102805.28;;;12.63;100.00
9421;BME280;4749;51.398;5.466;2022-11-11T15:38:18;102804.97;;;12.52;100.00
9421;BME280;4749;51.398;5.466;2022-11-11T15:40:49;102806.44;;;12.41;100.00
9421;BME280;4749;51.398;5.466;2022-11-11T15:43:24;102803.50;;;12.29;100.00
9421;BME280;4749;51.398;5.466;2022-11-11T15:45:59;102803.19;;;12.18;100.00